createdAt,value
2019-03-25T00:00:05.929Z,91.37
2019-03-25T00:02:36.754Z,92.08
2019-03-25T00:05:06.966Z,93.65
2019-03-25T00:07:36.121Z,91.82
2019-03-25T00:10:06.143Z,90.03
2019-03-25T00:12:35.297Z,95.87
2019-03-25T00:15:06.112Z,92.67
2019-03-25T00:17:35.277Z,92.82
2019-03-25T00:20:05.690Z,93.97
2019-03-25T00:22:34.907Z,93.50
2019-03-25T00:25:05.663Z,93.30
2019-03-25T00:27:34.816Z,95.95
2019-03-25T00:30:04.506Z,95.50
2019-03-25T00:32:33.671Z,92.80
2019-03-25T00:35:02.994Z,85.83
2019-03-25T00:37:33.244Z,86.47
2019-03-25T00:40:02.394Z,93.55
2019-03-25T00:42:31.691Z,87.05
2019-03-25T00:45:00.872Z,89.55
2019-03-25T00:47:30.111Z,83.78
2019-03-25T00:50:00.480Z,87.20
2019-03-25T00:52:29.649Z,84.65
2019-03-25T00:54:58.811Z,80.72
2019-03-25T00:57:27.985Z,86.17
2019-03-25T00:59:57.137Z,85.60
2019-03-25T01:02:26.349Z,92.47
2019-03-25T01:04:55.540Z,81.60
2019-03-25T01:07:24.705Z,87.60
2019-03-25T01:09:53.880Z,86.75
2019-03-25T01:12:23.040Z,89.07
2019-03-25T01:14:52.216Z,87.65
2019-03-25T01:17:21.380Z,83.22
2019-03-25T01:19:50.606Z,89.77
2019-03-25T01:22:19.808Z,83.62
2019-03-25T01:25:00.991Z,88.15
2019-03-25T01:27:20.873Z,82.75
2019-03-25T01:29:50.120Z,85.42
2019-03-25T01:32:19.294Z,89.07
2019-03-25T01:34:48.783Z,87.15
2019-03-25T01:37:18.018Z,90.15
2019-03-25T01:39:47.185Z,90.12
2019-03-25T01:42:16.350Z,84.75
2019-03-25T01:44:45.510Z,81.30
2019-03-25T01:47:14.718Z,88.85
2019-03-25T01:49:43.885Z,86.35
2019-03-25T01:52:13.043Z,91.35
2019-03-25T01:54:42.247Z,85.00
2019-03-25T01:57:11.476Z,82.50
2019-03-25T01:59:40.657Z,86.57
2019-03-25T02:02:09.808Z,93.00
2019-03-25T02:04:38.986Z,86.17
2019-03-25T02:07:08.143Z,87.88
2019-03-25T02:09:37.347Z,87.15
2019-03-25T02:12:06.564Z,92.00
2019-03-25T02:14:35.730Z,90.97
2019-03-25T02:17:05.957Z,90.22
2019-03-25T02:19:35.190Z,88.82
2019-03-25T02:22:04.402Z,87.37
2019-03-25T02:24:33.665Z,86.40
2019-03-25T02:27:02.839Z,87.27
2019-03-25T02:29:32.034Z,88.52
2019-03-25T02:32:01.289Z,88.47
2019-03-25T02:34:30.516Z,88.20
2019-03-25T02:36:59.687Z,86.35
2019-03-25T02:39:28.860Z,91.37
2019-03-25T02:41:58.051Z,82.02
2019-03-25T02:44:27.290Z,86.02
2019-03-25T02:46:56.528Z,87.25
2019-03-25T02:49:25.762Z,86.78
2019-03-25T02:51:55.023Z,88.58
2019-03-25T02:54:24.220Z,92.55
2019-03-25T02:56:53.376Z,88.62
2019-03-25T02:59:22.575Z,91.42
2019-03-25T03:01:51.818Z,99.65
2019-03-25T03:04:21.053Z,95.10
2019-03-25T03:06:50.213Z,86.80
2019-03-25T03:09:19.393Z,94.03
2019-03-25T03:11:48.621Z,95.28
2019-03-25T03:14:17.775Z,95.97
2019-03-25T03:16:46.968Z,92.85
2019-03-25T03:19:16.126Z,99.42
2019-03-25T03:21:45.293Z,96.60
2019-03-25T03:24:14.521Z,94.47
2019-03-25T03:26:43.678Z,100.85
2019-03-25T03:29:12.883Z,102.10
2019-03-25T03:31:42.099Z,98.45
2019-03-25T03:34:11.436Z,105.10
2019-03-25T03:36:40.605Z,105.45
2019-03-25T03:39:09.803Z,98.20
2019-03-25T03:41:38.946Z,96.63
2019-03-25T03:44:09.104Z,100.00
2019-03-25T03:46:38.364Z,101.22
2019-03-25T03:49:07.591Z,100.47
2019-03-25T03:51:37.294Z,97.72
2019-03-25T03:54:06.465Z,101.55
2019-03-25T03:56:36.193Z,96.57
2019-03-25T03:59:05.379Z,99.25
2019-03-25T04:01:34.538Z,95.55
2019-03-25T04:04:03.684Z,95.85
2019-03-25T04:06:32.857Z,97.65
2019-03-25T04:09:02.046Z,98.75
2019-03-25T04:11:32.440Z,100.02
2019-03-25T04:14:01.881Z,94.92
2019-03-25T04:16:31.120Z,93.40
2019-03-25T04:19:00.276Z,97.20
2019-03-25T04:21:29.437Z,94.87
2019-03-25T04:23:58.646Z,90.25
2019-03-25T04:26:29.394Z,99.92
2019-03-25T04:28:58.664Z,92.62
2019-03-25T04:31:27.954Z,98.90
2019-03-25T04:33:57.113Z,99.05
2019-03-25T04:36:26.307Z,94.28
2019-03-25T04:38:55.514Z,94.47
2019-03-25T04:41:24.746Z,94.70
2019-03-25T04:43:54.636Z,92.05
2019-03-25T04:46:23.883Z,96.17
2019-03-25T04:48:53.074Z,98.60
2019-03-25T04:51:22.249Z,94.42
2019-03-25T04:53:51.451Z,99.47
2019-03-25T04:56:20.608Z,94.75
2019-03-25T04:58:50.866Z,97.92
2019-03-25T05:01:20.093Z,91.05
2019-03-25T05:03:49.252Z,91.97
2019-03-25T05:06:18.421Z,100.72
2019-03-25T05:08:47.598Z,102.27
2019-03-25T05:11:16.812Z,102.32
2019-03-25T05:13:46.022Z,103.65
2019-03-25T05:16:15.213Z,100.50
2019-03-25T05:18:44.432Z,99.75
2019-03-25T05:21:13.860Z,104.03
2019-03-25T05:23:43.085Z,105.65
2019-03-25T05:26:12.367Z,102.42
2019-03-25T05:28:41.525Z,101.38
2019-03-25T05:31:10.727Z,96.28
2019-03-25T05:33:39.981Z,102.12
2019-03-25T05:36:09.206Z,94.83
2019-03-25T05:38:38.425Z,102.75
2019-03-25T05:41:07.573Z,98.12
2019-03-25T05:43:36.751Z,100.58
2019-03-25T05:46:05.930Z,90.90
2019-03-25T05:48:35.117Z,93.70
2019-03-25T05:51:04.281Z,98.50
2019-03-25T05:53:33.584Z,88.17
2019-03-25T05:56:03.082Z,89.65
2019-03-25T05:58:32.319Z,90.03
2019-03-25T06:01:04.739Z,85.70
2019-03-25T06:03:33.922Z,82.20
2019-03-25T06:06:04.215Z,80.28
2019-03-25T06:08:33.389Z,75.52
2019-03-25T06:11:02.564Z,77.50
2019-03-25T06:13:31.726Z,70.83
2019-03-25T06:16:00.930Z,70.97
2019-03-25T06:18:30.121Z,62.55
2019-03-25T06:20:59.344Z,62.35
2019-03-25T06:23:28.648Z,57.80
2019-03-25T06:25:57.887Z,58.15
2019-03-25T06:28:27.080Z,53.63
2019-03-25T06:30:56.287Z,48.90
2019-03-25T06:33:25.535Z,51.20
2019-03-25T06:35:54.718Z,44.50
2019-03-25T06:38:23.902Z,45.88
2019-03-25T06:40:53.092Z,47.45
2019-03-25T06:43:22.367Z,48.60
2019-03-25T06:45:52.630Z,43.00
2019-03-25T06:48:21.925Z,41.65
2019-03-25T06:50:51.170Z,43.48
2019-03-25T06:53:20.369Z,41.40
2019-03-25T06:55:49.557Z,41.80
2019-03-25T06:58:18.789Z,40.70
2019-03-25T07:00:48.066Z,40.25
2019-03-25T07:03:17.335Z,44.40
2019-03-25T07:05:46.727Z,45.63
2019-03-25T07:08:17.505Z,35.63
2019-03-25T07:10:46.703Z,44.60
2019-03-25T07:13:15.965Z,36.00
2019-03-25T07:15:45.403Z,36.48
2019-03-25T07:18:14.613Z,35.20
2019-03-25T07:20:43.820Z,36.45
2019-03-25T07:23:13.047Z,37.65
2019-03-25T07:25:42.235Z,39.23
2019-03-25T07:28:11.435Z,32.28
2019-03-25T07:30:40.710Z,35.20
2019-03-25T07:33:10.480Z,37.90
2019-03-25T07:35:39.793Z,35.10
2019-03-25T07:38:09.003Z,35.08
2019-03-25T07:40:38.210Z,33.48
2019-03-25T07:43:07.352Z,36.83
2019-03-25T07:45:36.611Z,36.63
2019-03-25T07:48:05.765Z,31.85
2019-03-25T07:50:35.174Z,36.00
2019-03-25T07:53:04.328Z,28.38
2019-03-25T07:55:33.629Z,31.15
2019-03-25T07:58:02.881Z,30.65
2019-03-25T08:00:32.156Z,34.98
2019-03-25T08:03:01.369Z,29.65
2019-03-25T08:05:30.588Z,31.48
2019-03-25T08:07:59.768Z,33.28
2019-03-25T08:10:34.038Z,25.10
2019-03-25T08:13:04.528Z,26.87
2019-03-25T08:15:33.946Z,31.60
2019-03-25T08:18:03.442Z,24.18
2019-03-25T08:20:32.709Z,30.05
2019-03-25T08:23:02.003Z,28.45
2019-03-25T08:25:31.250Z,26.97
2019-03-25T08:28:00.788Z,30.35
2019-03-25T08:30:30.157Z,30.95
2019-03-25T08:32:59.580Z,31.75
2019-03-25T08:35:28.817Z,29.92
2019-03-25T08:37:58.003Z,31.68
2019-03-25T08:40:27.239Z,31.15
2019-03-25T08:42:56.397Z,32.93
2019-03-25T08:45:25.760Z,29.90
2019-03-25T08:47:54.942Z,32.10
2019-03-25T08:50:24.134Z,25.05
2019-03-25T08:52:53.288Z,28.55
2019-03-25T08:55:22.463Z,32.28
2019-03-25T08:57:51.730Z,26.37
2019-03-25T09:00:20.946Z,26.00
2019-03-25T09:02:50.132Z,27.52
2019-03-25T09:05:19.589Z,24.23
2019-03-25T09:07:50.326Z,22.80
2019-03-25T09:10:19.784Z,28.40
2019-03-25T09:12:48.925Z,24.57
2019-03-25T09:15:18.109Z,23.55
2019-03-25T09:17:47.310Z,22.00
2019-03-25T09:20:16.469Z,21.15
2019-03-25T09:22:45.702Z,24.85
2019-03-25T09:25:14.877Z,21.37
2019-03-25T09:27:44.071Z,26.10
2019-03-25T09:30:13.237Z,21.68
2019-03-25T09:32:42.422Z,26.10
2019-03-25T09:35:11.569Z,22.65
2019-03-25T09:37:40.756Z,25.23
2019-03-25T09:40:09.990Z,21.15
2019-03-25T09:42:39.143Z,21.17
2019-03-25T09:45:08.500Z,22.13
2019-03-25T09:47:38.060Z,24.07
2019-03-25T09:50:07.398Z,29.45
2019-03-25T09:52:38.654Z,21.50
2019-03-25T09:55:08.466Z,23.55
2019-03-25T09:57:38.777Z,18.15
2019-03-25T10:00:11.000Z,22.15
2019-03-25T10:02:40.232Z,18.30
2019-03-25T10:05:09.545Z,18.98
2019-03-25T10:07:38.697Z,16.93
2019-03-25T10:10:08.034Z,15.95
2019-03-25T10:12:37.191Z,12.85
2019-03-25T10:15:07.934Z,14.03
2019-03-25T10:17:37.082Z,17.25
2019-03-25T10:20:07.132Z,18.87
2019-03-25T10:22:37.399Z,14.78
2019-03-25T10:25:07.824Z,16.17
2019-03-25T10:27:37.088Z,14.45
2019-03-25T10:30:12.258Z,15.00
2019-03-25T10:32:41.558Z,14.85
2019-03-25T10:35:10.698Z,14.58
2019-03-25T10:37:39.868Z,10.32
2019-03-25T10:40:09.018Z,15.30
2019-03-25T10:42:38.206Z,15.70
2019-03-25T10:45:07.696Z,14.35
2019-03-25T10:47:36.893Z,13.18
2019-03-25T10:50:07.254Z,14.40
2019-03-25T10:52:36.462Z,12.10
2019-03-25T10:55:07.816Z,9.15
2019-03-25T10:57:37.132Z,11.45
2019-03-25T11:00:08.206Z,9.30
2019-03-25T11:02:39.082Z,9.50
2019-03-25T11:05:09.407Z,12.25
2019-03-25T11:07:38.859Z,10.60
2019-03-25T11:10:08.872Z,9.45
2019-03-25T11:12:38.054Z,8.98
2019-03-25T11:15:08.719Z,10.50
2019-03-25T11:17:37.903Z,10.00
2019-03-25T11:20:08.692Z,10.38
2019-03-25T11:22:37.858Z,13.60
2019-03-25T11:25:07.228Z,14.18
2019-03-25T11:27:36.819Z,10.05
2019-03-25T11:30:10.369Z,7.78
2019-03-25T11:32:39.633Z,12.37
2019-03-25T11:35:09.274Z,9.93
2019-03-25T11:37:38.442Z,6.55
2019-03-25T11:40:08.656Z,8.45
2019-03-25T11:42:37.831Z,8.98
2019-03-25T11:45:08.933Z,8.60
2019-03-25T11:47:39.277Z,7.08
2019-03-25T11:50:08.735Z,8.73
2019-03-25T11:52:38.008Z,10.65
2019-03-25T11:55:07.597Z,9.48
2019-03-25T11:57:36.955Z,5.95
2019-03-25T12:00:09.149Z,8.30
2019-03-25T12:02:38.632Z,14.95
2019-03-25T12:05:07.870Z,12.55
2019-03-25T12:07:37.330Z,8.15
2019-03-25T12:10:06.793Z,7.80
2019-03-25T12:12:37.589Z,7.40
2019-03-25T12:15:08.069Z,7.47
2019-03-25T12:17:37.551Z,11.35
2019-03-25T12:20:07.385Z,12.80
2019-03-25T12:22:36.553Z,7.87
2019-03-25T12:25:07.422Z,9.58
2019-03-25T12:27:36.575Z,6.72
2019-03-25T12:30:07.675Z,11.12
2019-03-25T12:32:36.834Z,11.35
2019-03-25T12:35:06.783Z,8.33
2019-03-25T12:37:35.964Z,10.90
2019-03-25T12:40:07.775Z,10.45
2019-03-25T12:42:36.277Z,12.00
2019-03-25T12:45:06.985Z,4.95
2019-03-25T12:47:36.126Z,9.93
2019-03-25T12:50:07.025Z,10.05
2019-03-25T12:52:36.186Z,7.60
2019-03-25T12:55:05.614Z,9.43
2019-03-25T12:57:34.848Z,8.23
2019-03-25T13:00:05.650Z,10.88
2019-03-25T13:02:34.911Z,5.85
2019-03-25T13:05:05.785Z,8.30
2019-03-25T13:07:35.934Z,9.60
2019-03-25T13:10:06.267Z,9.15
2019-03-25T13:12:36.426Z,7.70
2019-03-25T13:15:09.610Z,11.90
2019-03-25T13:17:38.813Z,9.90
2019-03-25T13:20:08.046Z,12.23
2019-03-25T13:22:37.223Z,10.98
2019-03-25T13:25:06.520Z,11.85
2019-03-25T13:27:36.738Z,10.40
2019-03-25T13:30:07.335Z,9.93
2019-03-25T13:32:36.581Z,10.32
2019-03-25T13:35:06.515Z,8.25
2019-03-25T13:37:35.777Z,12.98
2019-03-25T13:40:06.156Z,11.70
2019-03-25T13:42:35.353Z,8.73
2019-03-25T13:45:05.951Z,10.35
2019-03-25T13:47:35.146Z,7.25
2019-03-25T13:50:06.526Z,10.80
2019-03-25T13:52:35.703Z,13.45
2019-03-25T13:55:05.836Z,11.00
2019-03-25T13:57:35.004Z,7.60
2019-03-25T14:00:06.090Z,9.40
2019-03-25T14:02:36.244Z,14.65
2019-03-25T14:05:05.879Z,8.18
2019-03-25T14:07:36.783Z,6.92
2019-03-25T14:10:09.063Z,5.80
2019-03-25T14:12:38.307Z,9.10
2019-03-25T14:15:07.976Z,8.08
2019-03-25T14:17:37.174Z,7.17
2019-03-25T14:20:07.788Z,6.97
2019-03-25T14:22:36.983Z,8.00
2019-03-25T14:25:06.234Z,7.10
2019-03-25T14:27:35.479Z,8.15
2019-03-25T14:30:14.322Z,7.05
2019-03-25T14:32:38.544Z,9.00
2019-03-25T14:35:07.767Z,7.17
2019-03-25T14:37:36.928Z,8.43
2019-03-25T14:40:07.442Z,7.58
2019-03-25T14:42:36.576Z,6.50
2019-03-25T14:45:07.089Z,9.25
2019-03-25T14:47:36.275Z,11.35
2019-03-25T14:50:08.265Z,11.43
2019-03-25T14:52:37.449Z,13.58
2019-03-25T14:55:06.647Z,11.28
2019-03-25T14:57:35.876Z,13.38
2019-03-25T15:00:08.165Z,12.73
2019-03-25T15:02:37.367Z,6.90
2019-03-25T15:05:07.375Z,9.35
2019-03-25T15:07:36.684Z,8.65
2019-03-25T15:10:06.161Z,7.00
2019-03-25T15:12:35.412Z,5.20
2019-03-25T15:15:06.779Z,10.48
2019-03-25T15:17:36.078Z,6.37
2019-03-25T15:20:10.088Z,7.65
2019-03-25T15:22:41.178Z,7.08
2019-03-25T15:25:10.679Z,5.10
2019-03-25T15:27:40.042Z,6.42
2019-03-25T15:30:09.266Z,7.30
2019-03-25T15:32:38.524Z,5.62
2019-03-25T15:35:08.405Z,5.80
2019-03-25T15:37:37.658Z,5.87
2019-03-25T15:40:08.786Z,7.80
2019-03-25T15:42:38.088Z,7.28
2019-03-25T15:45:08.340Z,7.35
2019-03-25T15:47:38.159Z,9.78
2019-03-25T15:50:09.461Z,7.45
2019-03-25T15:52:38.896Z,7.03
2019-03-25T15:55:08.060Z,9.20
2019-03-25T15:57:39.708Z,6.45
2019-03-25T16:00:21.823Z,9.13
2019-03-25T16:02:50.996Z,7.85
2019-03-25T16:05:20.171Z,6.58
2019-03-25T16:07:49.454Z,8.45
2019-03-25T16:10:19.565Z,12.43
2019-03-25T16:12:48.854Z,7.72
2019-03-25T16:15:41.141Z,8.85
2019-03-25T16:18:10.427Z,7.62
2019-03-25T16:20:39.616Z,11.60
2019-03-25T16:23:08.782Z,8.35
2019-03-25T16:25:38.217Z,11.15
2019-03-25T16:28:07.515Z,10.68
2019-03-25T16:30:36.807Z,12.90
2019-03-25T16:33:07.018Z,8.63
2019-03-25T16:35:36.230Z,5.45
2019-03-25T16:38:05.377Z,9.45
2019-03-25T16:40:34.576Z,7.20
2019-03-25T16:43:03.919Z,8.35
2019-03-25T16:45:33.260Z,10.15
2019-03-25T16:48:02.426Z,5.85
2019-03-25T16:50:31.582Z,7.03
2019-03-25T16:53:00.739Z,4.67
2019-03-25T16:55:31.533Z,6.37
2019-03-25T16:58:00.720Z,5.12
2019-03-25T17:00:29.860Z,6.65
2019-03-25T17:02:59.005Z,6.92
2019-03-25T17:05:28.230Z,6.87
2019-03-25T17:07:57.396Z,5.28
2019-03-25T17:10:26.569Z,7.17
2019-03-25T17:12:55.745Z,7.90
2019-03-25T17:15:24.935Z,7.70
2019-03-25T17:17:54.158Z,9.40
2019-03-25T17:20:23.377Z,16.93
2019-03-25T17:22:52.549Z,9.38
2019-03-25T17:25:21.703Z,10.28
2019-03-25T17:27:50.969Z,9.98
2019-03-25T17:30:20.125Z,8.40
2019-03-25T17:32:49.372Z,10.32
2019-03-25T17:35:18.510Z,7.20
2019-03-25T17:37:47.734Z,8.13
2019-03-25T17:40:16.968Z,8.43
2019-03-25T17:42:46.197Z,8.73
2019-03-25T17:45:15.516Z,5.17
2019-03-25T17:47:44.748Z,5.83
2019-03-25T17:50:13.880Z,7.03
2019-03-25T17:52:43.072Z,8.15
2019-03-25T17:55:12.234Z,6.90
2019-03-25T17:57:41.572Z,8.48
2019-03-25T18:00:11.827Z,7.25
2019-03-25T18:02:41.193Z,6.83
2019-03-25T18:05:10.357Z,7.33
2019-03-25T18:07:39.590Z,6.90
2019-03-25T18:10:08.820Z,8.93
2019-03-25T18:12:39.204Z,7.80
2019-03-25T18:15:10.534Z,6.97
2019-03-25T18:17:39.731Z,8.50
2019-03-25T18:20:18.020Z,6.67
2019-03-25T18:22:40.823Z,8.28
2019-03-25T18:25:10.098Z,12.40
2019-03-25T18:27:39.317Z,6.17
2019-03-25T18:30:08.467Z,6.65
2019-03-25T18:32:37.622Z,8.03
2019-03-25T18:35:07.947Z,7.55
2019-03-25T18:37:37.104Z,6.80
2019-03-25T18:40:06.258Z,5.90
2019-03-25T18:42:35.403Z,6.00
2019-03-25T18:45:05.519Z,8.53
2019-03-25T18:47:34.677Z,8.50
2019-03-25T18:50:06.939Z,7.67
2019-03-25T18:52:36.095Z,10.10
2019-03-25T18:55:06.803Z,6.47
2019-03-25T18:57:36.131Z,7.80
2019-03-25T19:00:07.649Z,12.25
2019-03-25T19:02:36.893Z,6.58
2019-03-25T19:05:06.452Z,6.80
2019-03-25T19:07:36.006Z,6.83
2019-03-25T19:10:07.491Z,5.55
2019-03-25T19:12:37.640Z,7.53
2019-03-25T19:15:07.286Z,4.80
2019-03-25T19:17:36.526Z,7.83
2019-03-25T19:20:06.708Z,5.75
2019-03-25T19:22:35.972Z,11.88
2019-03-25T19:25:05.853Z,6.17
2019-03-25T19:27:35.119Z,6.50
2019-03-25T19:30:07.010Z,7.37
2019-03-25T19:32:36.304Z,6.58
2019-03-25T19:35:08.750Z,8.85
2019-03-25T19:37:38.043Z,7.28
2019-03-25T19:40:08.217Z,6.28
2019-03-25T19:42:37.467Z,8.35
2019-03-25T19:45:08.114Z,4.95
2019-03-25T19:47:37.536Z,7.35
2019-03-25T19:50:07.069Z,7.00
2019-03-25T19:52:36.370Z,7.22
2019-03-25T19:55:06.692Z,8.15
2019-03-25T19:57:35.936Z,5.67
2019-03-25T20:00:09.275Z,6.35
2019-03-25T20:02:38.763Z,5.03
2019-03-25T20:05:08.293Z,7.35
2019-03-25T20:07:37.896Z,8.08
2019-03-25T20:10:07.836Z,9.85
2019-03-25T20:12:37.219Z,8.03
2019-03-25T20:15:07.296Z,6.08
2019-03-25T20:17:36.655Z,5.58
2019-03-25T20:20:07.763Z,7.78
2019-03-25T20:22:37.855Z,6.08
2019-03-25T20:25:07.195Z,6.95
2019-03-25T20:27:38.952Z,6.35
2019-03-25T20:30:10.117Z,5.90
2019-03-25T20:32:39.421Z,9.98
2019-03-25T20:35:08.727Z,6.30
2019-03-25T20:37:38.161Z,10.68
2019-03-25T20:40:07.740Z,8.20
2019-03-25T20:42:38.182Z,7.17
2019-03-25T20:45:09.170Z,7.00
2019-03-25T20:47:38.448Z,8.65
2019-03-25T20:50:07.916Z,9.08
2019-03-25T20:52:37.753Z,10.55
2019-03-25T20:55:07.416Z,7.65
2019-03-25T20:57:36.666Z,7.37
2019-03-25T21:00:09.174Z,7.08
2019-03-25T21:02:45.411Z,7.62
2019-03-25T21:05:11.928Z,10.57
2019-03-25T21:07:41.350Z,11.50
2019-03-25T21:10:10.640Z,9.18
2019-03-25T21:12:40.990Z,8.10
2019-03-25T21:15:10.931Z,10.55
2019-03-25T21:17:40.855Z,11.15
2019-03-25T21:20:10.297Z,11.45
2019-03-25T21:22:39.616Z,12.43
2019-03-25T21:25:08.904Z,11.88
2019-03-25T21:27:38.282Z,14.75
2019-03-25T21:30:07.866Z,12.65
2019-03-25T21:32:37.212Z,50.90
2019-03-25T21:35:06.525Z,17.40
2019-03-25T21:37:35.922Z,22.95
2019-03-25T21:40:06.588Z,15.03
2019-03-25T21:42:35.885Z,19.15
2019-03-25T21:45:07.970Z,14.20
2019-03-25T21:47:37.261Z,38.15
2019-03-25T21:50:07.106Z,21.10
2019-03-25T21:52:36.472Z,15.25
2019-03-25T21:55:06.577Z,14.63
2019-03-25T21:57:36.094Z,11.70
2019-03-25T22:00:07.883Z,11.33
2019-03-25T22:02:37.193Z,12.93
2019-03-25T22:05:06.894Z,16.17
2019-03-25T22:07:36.344Z,15.38
2019-03-25T22:10:05.899Z,10.25
2019-03-25T22:12:35.204Z,11.22
2019-03-25T22:15:08.036Z,14.98
2019-03-25T22:17:38.123Z,12.90
2019-03-25T22:20:08.010Z,15.55
2019-03-25T22:22:37.214Z,10.58
2019-03-25T22:25:11.239Z,13.48
2019-03-25T22:27:40.434Z,15.00
2019-03-25T22:30:11.238Z,15.78
2019-03-25T22:32:40.448Z,27.95
2019-03-25T22:35:09.694Z,19.67
2019-03-25T22:37:39.111Z,18.67
2019-03-25T22:40:08.875Z,16.25
2019-03-25T22:42:39.108Z,14.75
2019-03-25T22:45:08.403Z,19.85
2019-03-25T22:47:37.596Z,14.38
2019-03-25T22:50:07.707Z,10.55
2019-03-25T22:52:36.964Z,10.58
2019-03-25T22:55:06.794Z,11.38
2019-03-25T22:57:35.966Z,9.90
2019-03-25T23:00:07.031Z,11.53
2019-03-25T23:02:36.564Z,11.22
2019-03-25T23:05:06.504Z,8.53
2019-03-25T23:07:35.870Z,12.60
2019-03-25T23:10:05.156Z,10.40
2019-03-25T23:12:35.516Z,9.88
2019-03-25T23:15:05.596Z,10.85
2019-03-25T23:17:34.881Z,9.70
2019-03-25T23:20:04.990Z,10.15
2019-03-25T23:22:34.244Z,11.35
2019-03-25T23:25:04.276Z,12.28
2019-03-25T23:27:33.630Z,11.43
2019-03-25T23:30:03.138Z,11.57
2019-03-25T23:32:32.484Z,9.73
2019-03-25T23:35:02.130Z,10.70
2019-03-25T23:37:31.378Z,10.98
2019-03-25T23:40:00.609Z,10.35
2019-03-25T23:42:29.818Z,10.72
2019-03-25T23:44:59.022Z,12.65
2019-03-25T23:47:28.417Z,11.55
2019-03-25T23:49:57.815Z,11.15
2019-03-25T23:52:26.971Z,11.95
2019-03-25T23:54:56.248Z,13.00
2019-03-25T23:57:25.482Z,15.75
2019-03-25T23:59:54.753Z,14.93
